Terminal Aerodrome Forecast
Issued by NWS

Home | Current Version | Previous Version | Graphics & Text | Print | Product List | Glossary On
Versions: 1 2 3 4 5 6 7 8 9 10 11 12 13 14 15 16 17 18 19 20 21 22 23 24 25
000
FTUS43 KBIS 281100 RRA
TAFJMS
TAF
KJMS 281145Z 2812/2912 32020G30KT P6SM VCSH BKN006 OVC015
     FM281600 32022G30KT P6SM BKN012 OVC025
     FM282200 32015KT P6SM SCT025 BKN035
     FM290300 32010KT 6SM BR BKN020 OVC030
     FM290900 VRB03KT 5SM BR BKN020=

USA.gov is the U.S. government's official web portal to all federal, state and local government web resources and services.